sensor_id;sensor_type;location;lat;lon;timestamp;P1;durP1;ratioP1;P2;durP2;ratioP2
4422;SDS011;2224;49.814;8.650;2022-11-25T00:01:05;12.63;;;4.53;;
4422;SDS011;2224;49.814;8.650;2022-11-25T00:03:31;7.90;;;4.37;;
4422;SDS011;2224;49.814;8.650;2022-11-25T00:05:56;12.43;;;4.90;;
4422;SDS011;2224;49.814;8.650;2022-11-25T00:08:32;10.57;;;4.87;;
4422;SDS011;2224;49.814;8.650;2022-11-25T00:10:59;6.07;;;3.80;;
4422;SDS011;2224;49.814;8.650;2022-11-25T00:13:25;9.23;;;3.93;;
4422;SDS011;2224;49.814;8.650;2022-11-25T00:15:50;5.80;;;3.80;;
4422;SDS011;2224;49.814;8.650;2022-11-25T00:18:15;7.07;;;3.40;;
4422;SDS011;2224;49.814;8.650;2022-11-25T00:20:40;8.67;;;3.90;;
4422;SDS011;2224;49.814;8.650;2022-11-25T00:23:06;6.77;;;4.23;;
4422;SDS011;2224;49.814;8.650;2022-11-25T00:25:31;11.20;;;3.80;;
4422;SDS011;2224;49.814;8.650;2022-11-25T00:27:56;10.50;;;3.80;;
4422;SDS011;2224;49.814;8.650;2022-11-25T00:30:22;13.03;;;5.17;;
4422;SDS011;2224;49.814;8.650;2022-11-25T00:32:47;11.10;;;4.10;;
4422;SDS011;2224;49.814;8.650;2022-11-25T00:35:12;10.60;;;4.23;;
4422;SDS011;2224;49.814;8.650;2022-11-25T00:37:38;7.17;;;3.67;;
4422;SDS011;2224;49.814;8.650;2022-11-25T00:40:03;8.40;;;4.37;;
4422;SDS011;2224;49.814;8.650;2022-11-25T00:42:29;12.83;;;4.50;;
4422;SDS011;2224;49.814;8.650;2022-11-25T00:45:13;9.23;;;4.47;;
4422;SDS011;2224;49.814;8.650;2022-11-25T00:47:38;9.33;;;4.40;;
4422;SDS011;2224;49.814;8.650;2022-11-25T00:50:04;8.30;;;4.50;;
4422;SDS011;2224;49.814;8.650;2022-11-25T00:52:29;9.30;;;4.03;;
4422;SDS011;2224;49.814;8.650;2022-11-25T00:54:55;16.83;;;4.50;;
4422;SDS011;2224;49.814;8.650;2022-11-25T00:57:20;12.50;;;4.07;;
4422;SDS011;2224;49.814;8.650;2022-11-25T00:59:46;15.93;;;4.57;;
4422;SDS011;2224;49.814;8.650;2022-11-25T01:02:13;9.70;;;5.00;;
4422;SDS011;2224;49.814;8.650;2022-11-25T01:04:38;8.23;;;5.33;;
4422;SDS011;2224;49.814;8.650;2022-11-25T01:07:04;11.07;;;5.43;;
4422;SDS011;2224;49.814;8.650;2022-11-25T01:09:29;12.20;;;5.53;;
4422;SDS011;2224;49.814;8.650;2022-11-25T01:11:55;12.70;;;5.23;;
4422;SDS011;2224;49.814;8.650;2022-11-25T01:14:21;9.40;;;4.37;;
4422;SDS011;2224;49.814;8.650;2022-11-25T01:16:47;20.80;;;5.23;;
4422;SDS011;2224;49.814;8.650;2022-11-25T01:19:13;12.10;;;5.30;;
4422;SDS011;2224;49.814;8.650;2022-11-25T01:21:38;10.00;;;6.00;;
4422;SDS011;2224;49.814;8.650;2022-11-25T01:24:04;12.07;;;5.30;;
4422;SDS011;2224;49.814;8.650;2022-11-25T01:26:31;11.67;;;5.47;;
4422;SDS011;2224;49.814;8.650;2022-11-25T01:28:57;10.07;;;5.40;;
4422;SDS011;2224;49.814;8.650;2022-11-25T01:31:24;15.63;;;6.00;;
4422;SDS011;2224;49.814;8.650;2022-11-25T01:33:56;11.43;;;5.90;;
4422;SDS011;2224;49.814;8.650;2022-11-25T01:36:23;12.17;;;6.60;;
4422;SDS011;2224;49.814;8.650;2022-11-25T01:38:52;9.10;;;6.60;;
4422;SDS011;2224;49.814;8.650;2022-11-25T01:41:20;12.37;;;6.87;;
4422;SDS011;2224;49.814;8.650;2022-11-25T01:46:27;17.60;;;7.10;;
4422;SDS011;2224;49.814;8.650;2022-11-25T01:48:59;15.40;;;7.10;;
4422;SDS011;2224;49.814;8.650;2022-11-25T01:54:06;21.23;;;7.47;;
4422;SDS011;2224;49.814;8.650;2022-11-25T01:56:36;15.60;;;7.87;;
4422;SDS011;2224;49.814;8.650;2022-11-25T01:59:05;13.20;;;7.70;;
4422;SDS011;2224;49.814;8.650;2022-11-25T02:01:31;12.47;;;7.60;;
4422;SDS011;2224;49.814;8.650;2022-11-25T02:03:56;14.77;;;7.70;;
4422;SDS011;2224;49.814;8.650;2022-11-25T02:06:26;12.07;;;7.57;;
4422;SDS011;2224;49.814;8.650;2022-11-25T02:08:57;13.90;;;8.50;;
4422;SDS011;2224;49.814;8.650;2022-11-25T02:11:27;15.03;;;7.50;;
4422;SDS011;2224;49.814;8.650;2022-11-25T02:13:54;12.80;;;8.03;;
4422;SDS011;2224;49.814;8.650;2022-11-25T02:16:20;12.63;;;7.57;;
4422;SDS011;2224;49.814;8.650;2022-11-25T02:18:45;14.43;;;7.27;;
4422;SDS011;2224;49.814;8.650;2022-11-25T02:21:12;14.53;;;7.30;;
4422;SDS011;2224;49.814;8.650;2022-11-25T02:23:39;11.30;;;6.60;;
4422;SDS011;2224;49.814;8.650;2022-11-25T02:26:09;10.20;;;6.00;;
4422;SDS011;2224;49.814;8.650;2022-11-25T02:28:35;10.93;;;6.13;;
4422;SDS011;2224;49.814;8.650;2022-11-25T02:31:01;10.90;;;7.20;;
4422;SDS011;2224;49.814;8.650;2022-11-25T02:33:26;12.17;;;6.53;;
4422;SDS011;2224;49.814;8.650;2022-11-25T02:35:59;10.10;;;5.40;;
4422;SDS011;2224;49.814;8.650;2022-11-25T02:38:36;7.10;;;5.47;;
4422;SDS011;2224;49.814;8.650;2022-11-25T02:41:09;12.87;;;6.20;;
4422;SDS011;2224;49.814;8.650;2022-11-25T02:43:37;10.27;;;6.30;;
4422;SDS011;2224;49.814;8.650;2022-11-25T02:46:04;11.07;;;6.53;;
4422;SDS011;2224;49.814;8.650;2022-11-25T02:48:40;12.63;;;6.80;;
4422;SDS011;2224;49.814;8.650;2022-11-25T02:51:06;10.27;;;6.73;;
4422;SDS011;2224;49.814;8.650;2022-11-25T02:53:33;14.30;;;8.37;;
4422;SDS011;2224;49.814;8.650;2022-11-25T02:55:59;10.47;;;7.33;;
4422;SDS011;2224;49.814;8.650;2022-11-25T02:58:24;13.80;;;7.83;;
4422;SDS011;2224;49.814;8.650;2022-11-25T03:00:50;15.83;;;7.10;;
4422;SDS011;2224;49.814;8.650;2022-11-25T03:03:15;9.90;;;6.70;;
4422;SDS011;2224;49.814;8.650;2022-11-25T03:05:40;11.73;;;6.80;;
4422;SDS011;2224;49.814;8.650;2022-11-25T03:08:06;9.43;;;5.30;;
4422;SDS011;2224;49.814;8.650;2022-11-25T03:10:32;10.03;;;5.57;;
4422;SDS011;2224;49.814;8.650;2022-11-25T03:12:58;8.00;;;6.00;;
4422;SDS011;2224;49.814;8.650;2022-11-25T03:15:23;7.70;;;5.47;;
4422;SDS011;2224;49.814;8.650;2022-11-25T03:17:49;8.00;;;5.40;;
4422;SDS011;2224;49.814;8.650;2022-11-25T03:20:15;9.40;;;5.83;;
4422;SDS011;2224;49.814;8.650;2022-11-25T03:22:41;12.07;;;5.97;;
4422;SDS011;2224;49.814;8.650;2022-11-25T03:25:07;8.70;;;5.40;;
4422;SDS011;2224;49.814;8.650;2022-11-25T03:27:33;8.70;;;5.00;;
4422;SDS011;2224;49.814;8.650;2022-11-25T03:29:59;8.57;;;5.90;;
4422;SDS011;2224;49.814;8.650;2022-11-25T03:32:24;11.13;;;6.10;;
4422;SDS011;2224;49.814;8.650;2022-11-25T03:34:49;15.03;;;5.57;;
4422;SDS011;2224;49.814;8.650;2022-11-25T03:37:15;13.83;;;5.70;;
4422;SDS011;2224;49.814;8.650;2022-11-25T03:39:40;12.33;;;5.50;;
4422;SDS011;2224;49.814;8.650;2022-11-25T03:42:05;10.33;;;5.30;;
4422;SDS011;2224;49.814;8.650;2022-11-25T03:44:31;8.77;;;5.90;;
4422;SDS011;2224;49.814;8.650;2022-11-25T03:46:56;10.17;;;5.57;;
4422;SDS011;2224;49.814;8.650;2022-11-25T03:49:21;7.50;;;5.93;;
4422;SDS011;2224;49.814;8.650;2022-11-25T03:51:47;7.77;;;6.23;;
4422;SDS011;2224;49.814;8.650;2022-11-25T03:54:13;10.93;;;6.53;;
4422;SDS011;2224;49.814;8.650;2022-11-25T03:56:38;10.53;;;6.50;;
4422;SDS011;2224;49.814;8.650;2022-11-25T03:59:04;12.83;;;6.80;;
4422;SDS011;2224;49.814;8.650;2022-11-25T04:01:29;10.37;;;6.53;;
4422;SDS011;2224;49.814;8.650;2022-11-25T04:03:55;10.40;;;5.93;;
4422;SDS011;2224;49.814;8.650;2022-11-25T04:06:20;9.40;;;6.03;;
4422;SDS011;2224;49.814;8.650;2022-11-25T04:08:47;12.67;;;7.73;;
4422;SDS011;2224;49.814;8.650;2022-11-25T04:11:13;14.53;;;7.90;;
4422;SDS011;2224;49.814;8.650;2022-11-25T04:13:38;12.93;;;8.27;;
4422;SDS011;2224;49.814;8.650;2022-11-25T04:16:04;12.73;;;9.03;;
4422;SDS011;2224;49.814;8.650;2022-11-25T04:18:29;11.70;;;9.17;;
4422;SDS011;2224;49.814;8.650;2022-11-25T04:20:54;13.50;;;9.67;;
4422;SDS011;2224;49.814;8.650;2022-11-25T04:23:20;20.07;;;9.00;;
4422;SDS011;2224;49.814;8.650;2022-11-25T04:25:47;13.90;;;8.80;;
4422;SDS011;2224;49.814;8.650;2022-11-25T04:28:13;13.17;;;9.50;;
4422;SDS011;2224;49.814;8.650;2022-11-25T04:30:39;13.53;;;9.37;;
4422;SDS011;2224;49.814;8.650;2022-11-25T04:33:04;15.33;;;9.33;;
4422;SDS011;2224;49.814;8.650;2022-11-25T04:35:29;20.17;;;8.77;;
4422;SDS011;2224;49.814;8.650;2022-11-25T04:37:55;14.73;;;8.90;;
4422;SDS011;2224;49.814;8.650;2022-11-25T04:40:20;19.93;;;10.37;;
4422;SDS011;2224;49.814;8.650;2022-11-25T04:42:45;13.00;;;9.60;;
4422;SDS011;2224;49.814;8.650;2022-11-25T04:45:12;19.63;;;9.60;;
4422;SDS011;2224;49.814;8.650;2022-11-25T04:47:41;12.70;;;9.20;;
4422;SDS011;2224;49.814;8.650;2022-11-25T04:50:08;14.20;;;8.30;;
4422;SDS011;2224;49.814;8.650;2022-11-25T04:52:37;15.50;;;10.20;;
4422;SDS011;2224;49.814;8.650;2022-11-25T04:55:02;17.90;;;8.70;;
4422;SDS011;2224;49.814;8.650;2022-11-25T04:57:28;15.53;;;10.40;;
4422;SDS011;2224;49.814;8.650;2022-11-25T04:59:53;20.53;;;9.50;;
4422;SDS011;2224;49.814;8.650;2022-11-25T05:02:23;12.50;;;11.00;;
4422;SDS011;2224;49.814;8.650;2022-11-25T05:04:50;13.90;;;8.60;;
4422;SDS011;2224;49.814;8.650;2022-11-25T05:07:17;16.47;;;9.53;;
4422;SDS011;2224;49.814;8.650;2022-11-25T05:09:44;15.33;;;9.70;;
4422;SDS011;2224;49.814;8.650;2022-11-25T05:12:10;17.30;;;9.47;;
4422;SDS011;2224;49.814;8.650;2022-11-25T05:14:37;15.03;;;10.70;;
4422;SDS011;2224;49.814;8.650;2022-11-25T05:17:04;11.77;;;9.33;;
4422;SDS011;2224;49.814;8.650;2022-11-25T05:19:30;10.83;;;8.73;;
4422;SDS011;2224;49.814;8.650;2022-11-25T05:21:56;17.00;;;11.17;;
4422;SDS011;2224;49.814;8.650;2022-11-25T05:24:22;15.13;;;9.13;;
4422;SDS011;2224;49.814;8.650;2022-11-25T05:26:48;17.73;;;9.90;;
4422;SDS011;2224;49.814;8.650;2022-11-25T05:29:13;14.83;;;10.40;;
4422;SDS011;2224;49.814;8.650;2022-11-25T05:31:38;14.50;;;8.77;;
4422;SDS011;2224;49.814;8.650;2022-11-25T05:34:04;16.53;;;9.47;;
4422;SDS011;2224;49.814;8.650;2022-11-25T05:36:29;14.83;;;9.83;;
4422;SDS011;2224;49.814;8.650;2022-11-25T05:38:55;14.30;;;9.23;;
4422;SDS011;2224;49.814;8.650;2022-11-25T05:41:21;17.83;;;9.00;;
4422;SDS011;2224;49.814;8.650;2022-11-25T05:43:46;17.10;;;9.13;;
4422;SDS011;2224;49.814;8.650;2022-11-25T05:46:12;13.37;;;8.73;;
4422;SDS011;2224;49.814;8.650;2022-11-25T05:48:37;15.33;;;9.43;;
4422;SDS011;2224;49.814;8.650;2022-11-25T05:51:03;17.00;;;10.40;;
4422;SDS011;2224;49.814;8.650;2022-11-25T05:53:28;13.27;;;9.20;;
4422;SDS011;2224;49.814;8.650;2022-11-25T05:55:55;16.37;;;9.30;;
4422;SDS011;2224;49.814;8.650;2022-11-25T05:58:21;16.53;;;10.00;;
4422;SDS011;2224;49.814;8.650;2022-11-25T06:00:47;14.93;;;10.40;;
4422;SDS011;2224;49.814;8.650;2022-11-25T06:03:13;15.93;;;9.73;;
4422;SDS011;2224;49.814;8.650;2022-11-25T06:05:38;14.03;;;10.53;;
4422;SDS011;2224;49.814;8.650;2022-11-25T06:08:05;10.43;;;8.50;;
4422;SDS011;2224;49.814;8.650;2022-11-25T06:10:31;11.03;;;8.37;;
4422;SDS011;2224;49.814;8.650;2022-11-25T06:12:56;16.73;;;8.50;;
4422;SDS011;2224;49.814;8.650;2022-11-25T06:15:21;12.63;;;9.27;;
4422;SDS011;2224;49.814;8.650;2022-11-25T06:17:46;13.30;;;8.40;;
4422;SDS011;2224;49.814;8.650;2022-11-25T06:20:12;14.43;;;8.20;;
4422;SDS011;2224;49.814;8.650;2022-11-25T06:22:37;14.23;;;9.60;;
4422;SDS011;2224;49.814;8.650;2022-11-25T06:25:03;12.60;;;8.20;;
4422;SDS011;2224;49.814;8.650;2022-11-25T06:27:28;13.33;;;10.03;;
4422;SDS011;2224;49.814;8.650;2022-11-25T06:29:54;11.53;;;8.80;;
4422;SDS011;2224;49.814;8.650;2022-11-25T06:32:19;10.67;;;8.90;;
4422;SDS011;2224;49.814;8.650;2022-11-25T06:34:44;14.73;;;8.97;;
4422;SDS011;2224;49.814;8.650;2022-11-25T06:37:10;13.83;;;8.57;;
4422;SDS011;2224;49.814;8.650;2022-11-25T06:39:35;13.00;;;8.93;;
4422;SDS011;2224;49.814;8.650;2022-11-25T06:42:00;14.27;;;8.70;;
4422;SDS011;2224;49.814;8.650;2022-11-25T06:44:26;15.40;;;8.50;;
4422;SDS011;2224;49.814;8.650;2022-11-25T06:46:51;14.53;;;8.57;;
4422;SDS011;2224;49.814;8.650;2022-11-25T06:49:16;15.50;;;8.80;;
4422;SDS011;2224;49.814;8.650;2022-11-25T06:51:42;13.67;;;8.27;;
4422;SDS011;2224;49.814;8.650;2022-11-25T06:54:07;16.80;;;8.80;;
4422;SDS011;2224;49.814;8.650;2022-11-25T06:56:34;17.87;;;8.30;;
4422;SDS011;2224;49.814;8.650;2022-11-25T06:59:00;10.80;;;7.60;;
4422;SDS011;2224;49.814;8.650;2022-11-25T07:01:27;25.93;;;9.30;;
4422;SDS011;2224;49.814;8.650;2022-11-25T07:03:54;10.43;;;7.67;;
4422;SDS011;2224;49.814;8.650;2022-11-25T07:06:22;12.33;;;7.67;;
4422;SDS011;2224;49.814;8.650;2022-11-25T07:08:47;10.10;;;7.10;;
4422;SDS011;2224;49.814;8.650;2022-11-25T07:11:15;10.27;;;6.53;;
4422;SDS011;2224;49.814;8.650;2022-11-25T07:13:42;10.03;;;5.90;;
4422;SDS011;2224;49.814;8.650;2022-11-25T07:16:09;12.23;;;6.63;;
4422;SDS011;2224;49.814;8.650;2022-11-25T07:18:35;7.83;;;6.53;;
4422;SDS011;2224;49.814;8.650;2022-11-25T07:21:02;9.83;;;5.70;;
4422;SDS011;2224;49.814;8.650;2022-11-25T07:23:32;12.37;;;5.77;;
4422;SDS011;2224;49.814;8.650;2022-11-25T07:26:05;7.50;;;5.50;;
4422;SDS011;2224;49.814;8.650;2022-11-25T07:28:33;7.80;;;5.13;;
4422;SDS011;2224;49.814;8.650;2022-11-25T07:31:13;7.23;;;5.43;;
4422;SDS011;2224;49.814;8.650;2022-11-25T07:33:40;11.97;;;5.60;;
4422;SDS011;2224;49.814;8.650;2022-11-25T07:36:07;11.60;;;5.40;;
4422;SDS011;2224;49.814;8.650;2022-11-25T07:38:33;8.27;;;4.30;;
4422;SDS011;2224;49.814;8.650;2022-11-25T07:41:13;12.10;;;6.17;;
4422;SDS011;2224;49.814;8.650;2022-11-25T07:43:39;8.93;;;4.10;;
4422;SDS011;2224;49.814;8.650;2022-11-25T07:48:39;9.40;;;4.30;;
4422;SDS011;2224;49.814;8.650;2022-11-25T07:51:12;11.07;;;4.10;;
4422;SDS011;2224;49.814;8.650;2022-11-25T07:53:55;6.80;;;4.03;;
4422;SDS011;2224;49.814;8.650;2022-11-25T07:56:21;8.33;;;4.20;;
4422;SDS011;2224;49.814;8.650;2022-11-25T07:58:47;10.53;;;4.70;;
4422;SDS011;2224;49.814;8.650;2022-11-25T08:01:13;11.60;;;4.17;;
4422;SDS011;2224;49.814;8.650;2022-11-25T08:03:39;5.97;;;3.80;;
4422;SDS011;2224;49.814;8.650;2022-11-25T08:06:07;9.73;;;3.90;;
4422;SDS011;2224;49.814;8.650;2022-11-25T08:08:34;9.27;;;3.90;;
4422;SDS011;2224;49.814;8.650;2022-11-25T08:11:00;5.30;;;3.73;;
4422;SDS011;2224;49.814;8.650;2022-11-25T08:13:25;10.07;;;4.10;;
4422;SDS011;2224;49.814;8.650;2022-11-25T08:15:51;7.00;;;3.50;;
4422;SDS011;2224;49.814;8.650;2022-11-25T08:18:16;5.20;;;3.53;;
4422;SDS011;2224;49.814;8.650;2022-11-25T08:20:42;6.80;;;4.30;;
4422;SDS011;2224;49.814;8.650;2022-11-25T08:23:08;8.40;;;3.87;;
4422;SDS011;2224;49.814;8.650;2022-11-25T08:25:37;6.00;;;3.60;;
4422;SDS011;2224;49.814;8.650;2022-11-25T08:28:06;3.73;;;3.43;;
4422;SDS011;2224;49.814;8.650;2022-11-25T08:30:31;6.33;;;4.13;;
4422;SDS011;2224;49.814;8.650;2022-11-25T08:32:57;5.20;;;4.17;;
4422;SDS011;2224;49.814;8.650;2022-11-25T08:35:22;5.90;;;3.50;;
4422;SDS011;2224;49.814;8.650;2022-11-25T08:37:48;7.77;;;3.77;;
4422;SDS011;2224;49.814;8.650;2022-11-25T08:40:13;6.63;;;2.97;;
4422;SDS011;2224;49.814;8.650;2022-11-25T08:42:39;6.43;;;3.63;;
4422;SDS011;2224;49.814;8.650;2022-11-25T08:45:05;8.60;;;2.93;;
4422;SDS011;2224;49.814;8.650;2022-11-25T08:47:31;5.73;;;3.10;;
4422;SDS011;2224;49.814;8.650;2022-11-25T08:49:56;6.43;;;3.57;;
4422;SDS011;2224;49.814;8.650;2022-11-25T08:52:22;9.23;;;4.03;;
4422;SDS011;2224;49.814;8.650;2022-11-25T08:54:48;10.70;;;4.17;;
4422;SDS011;2224;49.814;8.650;2022-11-25T08:57:13;5.70;;;3.40;;
4422;SDS011;2224;49.814;8.650;2022-11-25T08:59:39;8.40;;;3.27;;
4422;SDS011;2224;49.814;8.650;2022-11-25T09:02:04;11.87;;;4.00;;
4422;SDS011;2224;49.814;8.650;2022-11-25T09:04:30;4.13;;;3.73;;
4422;SDS011;2224;49.814;8.650;2022-11-25T09:06:55;6.30;;;3.90;;
4422;SDS011;2224;49.814;8.650;2022-11-25T09:09:21;6.90;;;3.90;;
4422;SDS011;2224;49.814;8.650;2022-11-25T09:11:46;8.70;;;4.37;;
4422;SDS011;2224;49.814;8.650;2022-11-25T09:14:12;10.37;;;4.27;;
4422;SDS011;2224;49.814;8.650;2022-11-25T09:16:37;8.13;;;4.43;;
4422;SDS011;2224;49.814;8.650;2022-11-25T09:19:02;5.73;;;4.00;;
4422;SDS011;2224;49.814;8.650;2022-11-25T09:21:28;5.57;;;4.73;;
4422;SDS011;2224;49.814;8.650;2022-11-25T09:23:53;10.63;;;4.80;;
4422;SDS011;2224;49.814;8.650;2022-11-25T09:26:26;7.03;;;5.20;;
4422;SDS011;2224;49.814;8.650;2022-11-25T09:28:53;5.93;;;5.00;;
4422;SDS011;2224;49.814;8.650;2022-11-25T09:31:19;7.70;;;4.97;;
4422;SDS011;2224;49.814;8.650;2022-11-25T09:33:45;9.23;;;5.73;;
4422;SDS011;2224;49.814;8.650;2022-11-25T09:36:11;8.27;;;5.53;;
4422;SDS011;2224;49.814;8.650;2022-11-25T09:38:38;8.80;;;6.20;;
4422;SDS011;2224;49.814;8.650;2022-11-25T09:44:13;8.97;;;5.70;;
4422;SDS011;2224;49.814;8.650;2022-11-25T09:49:50;10.40;;;7.03;;
4422;SDS011;2224;49.814;8.650;2022-11-25T09:52:59;10.70;;;6.10;;
4422;SDS011;2224;49.814;8.650;2022-11-25T09:55:42;10.20;;;6.50;;
4422;SDS011;2224;49.814;8.650;2022-11-25T10:00:41;8.07;;;6.87;;
4422;SDS011;2224;49.814;8.650;2022-11-25T10:06:03;7.17;;;6.37;;
4422;SDS011;2224;49.814;8.650;2022-11-25T10:08:37;10.87;;;8.37;;
4422;SDS011;2224;49.814;8.650;2022-11-25T10:21:48;11.30;;;8.07;;
4422;SDS011;2224;49.814;8.650;2022-11-25T10:24:14;12.17;;;7.70;;
4422;SDS011;2224;49.814;8.650;2022-11-25T10:26:42;11.13;;;7.67;;
4422;SDS011;2224;49.814;8.650;2022-11-25T10:31:37;7.80;;;6.77;;
4422;SDS011;2224;49.814;8.650;2022-11-25T10:34:11;10.23;;;7.20;;
4422;SDS011;2224;49.814;8.650;2022-11-25T10:36:59;11.00;;;7.33;;
4422;SDS011;2224;49.814;8.650;2022-11-25T10:39:27;9.40;;;7.37;;
4422;SDS011;2224;49.814;8.650;2022-11-25T10:41:59;13.27;;;8.20;;
4422;SDS011;2224;49.814;8.650;2022-11-25T10:44:56;9.87;;;8.07;;
4422;SDS011;2224;49.814;8.650;2022-11-25T10:53:25;12.17;;;6.47;;
4422;SDS011;2224;49.814;8.650;2022-11-25T10:56:04;9.33;;;7.20;;
4422;SDS011;2224;49.814;8.650;2022-11-25T10:58:36;10.60;;;7.80;;
4422;SDS011;2224;49.814;8.650;2022-11-25T11:03:39;10.57;;;7.27;;
4422;SDS011;2224;49.814;8.650;2022-11-25T11:06:05;11.27;;;7.33;;
4422;SDS011;2224;49.814;8.650;2022-11-25T11:08:37;13.37;;;8.80;;
4422;SDS011;2224;49.814;8.650;2022-11-25T11:11:15;11.20;;;7.00;;
4422;SDS011;2224;49.814;8.650;2022-11-25T11:13:42;11.33;;;7.83;;
4422;SDS011;2224;49.814;8.650;2022-11-25T11:16:22;15.30;;;7.70;;
4422;SDS011;2224;49.814;8.650;2022-11-25T11:18:51;9.13;;;6.97;;
4422;SDS011;2224;49.814;8.650;2022-11-25T11:21:35;10.93;;;7.00;;
4422;SDS011;2224;49.814;8.650;2022-11-25T11:24:13;11.20;;;7.30;;
4422;SDS011;2224;49.814;8.650;2022-11-25T11:26:47;10.60;;;7.67;;
4422;SDS011;2224;49.814;8.650;2022-11-25T11:29:25;10.47;;;7.10;;
4422;SDS011;2224;49.814;8.650;2022-11-25T11:31:55;10.57;;;7.43;;
4422;SDS011;2224;49.814;8.650;2022-11-25T11:42:38;10.43;;;6.43;;
4422;SDS011;2224;49.814;8.650;2022-11-25T12:01:12;10.80;;;7.80;;
4422;SDS011;2224;49.814;8.650;2022-11-25T12:06:57;12.27;;;8.93;;
4422;SDS011;2224;49.814;8.650;2022-11-25T12:09:28;11.10;;;7.70;;
4422;SDS011;2224;49.814;8.650;2022-11-25T12:11:57;10.40;;;7.50;;
4422;SDS011;2224;49.814;8.650;2022-11-25T12:14:31;10.63;;;7.60;;
4422;SDS011;2224;49.814;8.650;2022-11-25T12:17:01;11.30;;;7.37;;
4422;SDS011;2224;49.814;8.650;2022-11-25T12:19:32;8.83;;;7.40;;
4422;SDS011;2224;49.814;8.650;2022-11-25T12:22:12;9.87;;;6.97;;
4422;SDS011;2224;49.814;8.650;2022-11-25T12:25:12;13.00;;;7.00;;
4422;SDS011;2224;49.814;8.650;2022-11-25T12:27:43;14.10;;;8.07;;
4422;SDS011;2224;49.814;8.650;2022-11-25T12:30:16;12.30;;;7.33;;
4422;SDS011;2224;49.814;8.650;2022-11-25T12:32:57;10.67;;;7.67;;
4422;SDS011;2224;49.814;8.650;2022-11-25T12:44:02;15.40;;;8.70;;
4422;SDS011;2224;49.814;8.650;2022-11-25T12:46:48;10.20;;;8.10;;
4422;SDS011;2224;49.814;8.650;2022-11-25T12:49:16;12.70;;;8.40;;
4422;SDS011;2224;49.814;8.650;2022-11-25T12:51:49;12.30;;;7.30;;
4422;SDS011;2224;49.814;8.650;2022-11-25T13:00:16;14.10;;;7.77;;
4422;SDS011;2224;49.814;8.650;2022-11-25T13:03:02;8.90;;;7.00;;
4422;SDS011;2224;49.814;8.650;2022-11-25T13:05:46;11.17;;;7.30;;
4422;SDS011;2224;49.814;8.650;2022-11-25T13:14:03;10.00;;;7.03;;
4422;SDS011;2224;49.814;8.650;2022-11-25T13:16:29;10.17;;;6.73;;
4422;SDS011;2224;49.814;8.650;2022-11-25T13:18:55;14.93;;;7.33;;
4422;SDS011;2224;49.814;8.650;2022-11-25T13:21:21;10.27;;;7.80;;
4422;SDS011;2224;49.814;8.650;2022-11-25T13:23:52;15.50;;;6.97;;
4422;SDS011;2224;49.814;8.650;2022-11-25T13:28:56;10.60;;;6.93;;
4422;SDS011;2224;49.814;8.650;2022-11-25T13:32:24;14.03;;;7.33;;
4422;SDS011;2224;49.814;8.650;2022-11-25T13:36:46;8.77;;;7.10;;
4422;SDS011;2224;49.814;8.650;2022-11-25T13:39:17;12.10;;;6.47;;
4422;SDS011;2224;49.814;8.650;2022-11-25T13:41:45;12.20;;;7.70;;
4422;SDS011;2224;49.814;8.650;2022-11-25T13:44:19;10.57;;;7.90;;
4422;SDS011;2224;49.814;8.650;2022-11-25T13:46:45;8.00;;;6.63;;
4422;SDS011;2224;49.814;8.650;2022-11-25T13:49:24;9.20;;;7.10;;
4422;SDS011;2224;49.814;8.650;2022-11-25T13:51:59;8.37;;;7.03;;
4422;SDS011;2224;49.814;8.650;2022-11-25T13:54:31;11.07;;;7.50;;
4422;SDS011;2224;49.814;8.650;2022-11-25T13:57:20;9.43;;;7.50;;
4422;SDS011;2224;49.814;8.650;2022-11-25T14:00:00;11.10;;;7.77;;
4422;SDS011;2224;49.814;8.650;2022-11-25T14:02:46;10.13;;;7.47;;
4422;SDS011;2224;49.814;8.650;2022-11-25T14:05:17;9.90;;;7.13;;
4422;SDS011;2224;49.814;8.650;2022-11-25T14:13:23;12.10;;;7.87;;
4422;SDS011;2224;49.814;8.650;2022-11-25T14:16:03;13.93;;;8.10;;
4422;SDS011;2224;49.814;8.650;2022-11-25T14:21:09;9.33;;;7.07;;
4422;SDS011;2224;49.814;8.650;2022-11-25T14:26:29;11.40;;;8.00;;
4422;SDS011;2224;49.814;8.650;2022-11-25T14:29:03;12.43;;;7.90;;
4422;SDS011;2224;49.814;8.650;2022-11-25T14:31:46;12.67;;;8.20;;
4422;SDS011;2224;49.814;8.650;2022-11-25T14:34:20;14.80;;;7.77;;
4422;SDS011;2224;49.814;8.650;2022-11-25T14:36:58;11.90;;;8.37;;
4422;SDS011;2224;49.814;8.650;2022-11-25T14:39:47;12.63;;;8.47;;
4422;SDS011;2224;49.814;8.650;2022-11-25T14:42:17;12.63;;;8.03;;
4422;SDS011;2224;49.814;8.650;2022-11-25T14:44:48;13.27;;;8.50;;
4422;SDS011;2224;49.814;8.650;2022-11-25T14:47:20;12.80;;;8.67;;
4422;SDS011;2224;49.814;8.650;2022-11-25T14:49:47;15.33;;;9.27;;
4422;SDS011;2224;49.814;8.650;2022-11-25T14:52:37;9.07;;;8.17;;
4422;SDS011;2224;49.814;8.650;2022-11-25T14:55:03;10.57;;;8.70;;
4422;SDS011;2224;49.814;8.650;2022-11-25T14:57:33;13.60;;;8.43;;
4422;SDS011;2224;49.814;8.650;2022-11-25T15:00:02;12.20;;;8.27;;
4422;SDS011;2224;49.814;8.650;2022-11-25T15:02:31;12.00;;;8.50;;
4422;SDS011;2224;49.814;8.650;2022-11-25T15:05:07;10.00;;;8.00;;
4422;SDS011;2224;49.814;8.650;2022-11-25T15:07:40;12.60;;;9.00;;
4422;SDS011;2224;49.814;8.650;2022-11-25T15:10:26;10.83;;;8.10;;
4422;SDS011;2224;49.814;8.650;2022-11-25T15:13:01;10.63;;;8.47;;
4422;SDS011;2224;49.814;8.650;2022-11-25T15:15:33;13.43;;;8.17;;
4422;SDS011;2224;49.814;8.650;2022-11-25T15:18:02;13.43;;;8.63;;
4422;SDS011;2224;49.814;8.650;2022-11-25T15:20:29;12.27;;;8.57;;
4422;SDS011;2224;49.814;8.650;2022-11-25T15:22:58;13.50;;;9.03;;
4422;SDS011;2224;49.814;8.650;2022-11-25T15:25:23;10.63;;;8.07;;
4422;SDS011;2224;49.814;8.650;2022-11-25T15:27:49;12.60;;;8.17;;
4422;SDS011;2224;49.814;8.650;2022-11-25T15:30:17;11.83;;;8.23;;
4422;SDS011;2224;49.814;8.650;2022-11-25T15:32:47;14.47;;;9.33;;
4422;SDS011;2224;49.814;8.650;2022-11-25T15:35:23;10.97;;;8.07;;
4422;SDS011;2224;49.814;8.650;2022-11-25T15:37:50;17.23;;;8.70;;
4422;SDS011;2224;49.814;8.650;2022-11-25T15:43:20;12.07;;;8.57;;
4422;SDS011;2224;49.814;8.650;2022-11-25T15:45:47;10.13;;;7.60;;
4422;SDS011;2224;49.814;8.650;2022-11-25T15:48:15;18.20;;;7.83;;
4422;SDS011;2224;49.814;8.650;2022-11-25T15:50:43;14.83;;;7.87;;
4422;SDS011;2224;49.814;8.650;2022-11-25T15:53:09;11.00;;;8.20;;
4422;SDS011;2224;49.814;8.650;2022-11-25T15:55:47;14.53;;;8.40;;
4422;SDS011;2224;49.814;8.650;2022-11-25T15:58:14;10.73;;;8.20;;
4422;SDS011;2224;49.814;8.650;2022-11-25T16:01:01;11.03;;;8.40;;
4422;SDS011;2224;49.814;8.650;2022-11-25T16:03:28;18.00;;;8.50;;
4422;SDS011;2224;49.814;8.650;2022-11-25T16:05:58;24.70;;;13.83;;
4422;SDS011;2224;49.814;8.650;2022-11-25T16:08:31;15.87;;;10.17;;
4422;SDS011;2224;49.814;8.650;2022-11-25T16:11:20;14.27;;;9.10;;
4422;SDS011;2224;49.814;8.650;2022-11-25T16:13:48;12.67;;;8.67;;
4422;SDS011;2224;49.814;8.650;2022-11-25T16:16:15;17.17;;;7.97;;
4422;SDS011;2224;49.814;8.650;2022-11-25T16:26:30;15.77;;;11.90;;
4422;SDS011;2224;49.814;8.650;2022-11-25T16:29:16;13.40;;;9.97;;
4422;SDS011;2224;49.814;8.650;2022-11-25T16:31:43;11.70;;;9.80;;
4422;SDS011;2224;49.814;8.650;2022-11-25T16:34:11;16.10;;;8.60;;
4422;SDS011;2224;49.814;8.650;2022-11-25T16:36:38;16.80;;;9.77;;
4422;SDS011;2224;49.814;8.650;2022-11-25T16:39:03;16.30;;;10.30;;
4422;SDS011;2224;49.814;8.650;2022-11-25T16:41:29;16.00;;;12.10;;
4422;SDS011;2224;49.814;8.650;2022-11-25T16:43:54;13.20;;;8.97;;
4422;SDS011;2224;49.814;8.650;2022-11-25T16:46:19;12.80;;;9.57;;
4422;SDS011;2224;49.814;8.650;2022-11-25T16:48:45;13.50;;;10.10;;
4422;SDS011;2224;49.814;8.650;2022-11-25T16:51:15;19.20;;;10.20;;
4422;SDS011;2224;49.814;8.650;2022-11-25T16:53:42;10.10;;;9.00;;
4422;SDS011;2224;49.814;8.650;2022-11-25T16:56:11;13.90;;;10.33;;
4422;SDS011;2224;49.814;8.650;2022-11-25T16:58:39;13.43;;;10.40;;
4422;SDS011;2224;49.814;8.650;2022-11-25T17:01:08;13.07;;;8.40;;
4422;SDS011;2224;49.814;8.650;2022-11-25T17:03:36;16.53;;;9.70;;
4422;SDS011;2224;49.814;8.650;2022-11-25T17:06:04;16.60;;;9.93;;
4422;SDS011;2224;49.814;8.650;2022-11-25T17:08:35;17.93;;;12.20;;
4422;SDS011;2224;49.814;8.650;2022-11-25T17:11:00;12.00;;;10.00;;